PAAQ METAR and TAF weather

Enter ICAO airport designator
Station Type Date Time Source
PAAQ METAR 2022/12/08 12:53 UTC NOAA

PAAQ 081253Z AUTO 34003KT SCT019 M07/M08 A2942 RMK AO2 SLP967 T10671083 TSNO


Station Type Date Time Source
PAAQ Decoded METAR 2022/12/08 12:53 UTC NOAA

PALMER MUNICIPAL AIRPORT, AK, United States (PAAQ) 61-36N 149-06W
Dec 08, 2022 - 07:53 AM EST / 2022.12.08 1253 UTC
Wind: from the NNW (340 degrees) at 3 MPH (3 KT):0
Sky conditions: partly cloudy
Temperature: 19.9 F (-6.7 C)
Dew Point: 17.1 F (-8.3 C)
Relative Humidity: 88%
Pressure (altimeter): 29.42 in. Hg (996 hPa)
ob: PAAQ 081253Z AUTO 34003KT SCT019 M07/M08 A2942 RMK AO2 SLP967 T10671083 TSNO
cycle: 13

Station Type Date Time Source
PAAQ TAF 2022/12/08 12:27 UTC NOAA

TAF PAAQ 081125Z 0812/0912 35006KT P6SM BKN080
FM090300 35008KT P6SM SKC
AMD NOT SKED

Example: see airport list